createdAt,value
2018-10-11T00:15:14.545Z,54.33
2018-10-11T00:28:54.406Z,52.87
2018-10-11T00:32:57.168Z,46.77
2018-10-11T00:37:00.069Z,51.07
2018-10-11T00:45:13.613Z,48.83
2018-10-11T00:49:20.384Z,48.87
2018-10-11T00:53:27.195Z,48.27
2018-10-11T01:01:58.431Z,53.97
2018-10-11T01:06:18.619Z,57.13
2018-10-11T01:10:25.295Z,54.63
2018-10-11T01:19:34.974Z,55.97
2018-10-11T01:23:47.093Z,54.70
2018-10-11T01:27:51.253Z,59.83
2018-10-11T01:32:05.387Z,58.63
2018-10-11T01:36:14.937Z,52.30
2018-10-11T01:40:23.752Z,60.47
2018-10-11T01:44:26.666Z,58.17
2018-10-11T01:48:29.471Z,56.70
2018-10-11T01:52:38.942Z,56.50
2018-10-11T01:56:56.869Z,53.33
2018-10-11T02:01:02.941Z,57.27
2018-10-11T02:05:13.962Z,59.07
2018-10-11T02:09:20.953Z,70.73
2018-10-11T02:13:29.493Z,66.60
2018-10-11T02:17:32.318Z,59.77
2018-10-11T02:21:50.592Z,58.23
2018-10-11T02:26:10.585Z,60.67
2018-10-11T02:30:14.195Z,64.40
2018-10-11T02:34:17.065Z,60.10
2018-10-11T02:38:19.776Z,61.93
2018-10-11T02:42:22.492Z,59.90
2018-10-11T02:46:34.421Z,60.27
2018-10-11T02:50:52.935Z,60.23
2018-10-11T02:55:00.995Z,56.70
2018-10-11T02:59:44.730Z,54.53
2018-10-11T03:03:52.290Z,57.50
2018-10-11T03:08:02.909Z,53.20
2018-10-11T03:12:05.662Z,56.57
2018-10-11T03:16:08.367Z,55.97
2018-10-11T03:20:11.389Z,56.57
2018-10-11T03:24:20.869Z,59.03
2018-10-11T03:32:38.865Z,59.67
2018-10-11T03:36:51.008Z,55.47
2018-10-11T03:41:03.013Z,53.83
2018-10-11T03:45:05.876Z,56.23
2018-10-11T03:49:16.716Z,53.97
2018-10-11T03:53:19.673Z,59.03
2018-10-11T03:57:29.184Z,53.97
2018-10-11T04:01:42.402Z,54.10
2018-10-11T04:05:45.132Z,52.63
2018-10-11T04:09:52.630Z,53.70
2018-10-11T04:14:00.003Z,55.17
2018-10-11T04:18:06.253Z,52.13
2018-10-11T04:22:09.401Z,51.60
2018-10-11T04:26:12.166Z,54.00
2018-10-11T04:30:26.367Z,50.83
2018-10-11T04:34:29.120Z,54.83
2018-10-11T04:38:31.901Z,52.70
2018-10-11T04:42:34.724Z,53.70
2018-10-11T04:46:37.400Z,55.33
2018-10-11T04:51:03.474Z,53.30
2018-10-11T04:55:06.634Z,52.87
2018-10-11T04:59:09.974Z,53.77
2018-10-11T05:03:14.339Z,51.60
2018-10-11T05:07:17.561Z,59.27
2018-10-11T05:11:20.911Z,49.93
2018-10-11T05:15:25.364Z,51.03
2018-10-11T05:19:28.678Z,57.57
2018-10-11T05:23:31.907Z,51.63
2018-10-11T05:27:35.184Z,47.00
2018-10-11T05:31:38.671Z,50.77
2018-10-11T05:35:43.325Z,49.67
2018-10-11T05:39:46.705Z,52.73
2018-10-11T05:43:50.088Z,47.27
2018-10-11T05:47:53.527Z,49.67
2018-10-11T05:51:56.936Z,51.97
2018-10-11T05:56:00.275Z,57.90
2018-10-11T06:00:03.636Z,53.17
2018-10-11T06:04:08.937Z,58.00
2018-10-11T06:08:12.267Z,52.10
2018-10-11T06:12:16.651Z,52.67
2018-10-11T06:16:19.981Z,50.13
2018-10-11T06:20:23.379Z,52.43
2018-10-11T21:09:30.140Z,22.07
2018-10-11T21:13:32.934Z,18.63
2018-10-11T21:17:35.679Z,19.00
2018-10-11T21:21:38.469Z,21.13
2018-10-11T21:25:41.161Z,22.57
2018-10-11T21:29:43.904Z,22.10
2018-10-11T21:33:46.629Z,20.00
2018-10-11T21:37:49.275Z,22.63
2018-10-11T21:41:51.974Z,21.53
2018-10-11T21:45:54.716Z,22.00
2018-10-11T21:49:57.415Z,21.63
2018-10-11T21:54:00.133Z,24.63
2018-10-11T21:58:02.870Z,19.47
2018-10-11T22:02:05.592Z,23.67
2018-10-11T22:06:08.548Z,26.80
2018-10-11T22:10:11.293Z,21.67
2018-10-11T22:14:13.971Z,21.53
2018-10-11T22:18:16.846Z,21.83
2018-10-11T22:22:19.623Z,26.10
2018-10-11T22:26:22.354Z,27.40
2018-10-11T22:30:25.112Z,22.87
2018-10-11T22:34:27.799Z,21.50
2018-10-11T22:38:30.476Z,21.27
2018-10-11T22:42:33.224Z,23.93
2018-10-11T22:46:36.343Z,21.10
2018-10-11T22:50:39.071Z,21.57
2018-10-11T22:54:41.827Z,21.77
2018-10-11T22:58:44.515Z,21.20
2018-10-11T23:02:47.239Z,22.60
2018-10-11T23:06:49.986Z,27.43
2018-10-11T23:10:52.733Z,24.73
2018-10-11T23:14:55.430Z,22.40
2018-10-11T23:18:58.120Z,20.40
2018-10-11T23:23:00.955Z,25.00
2018-10-11T23:27:03.670Z,21.50
2018-10-11T23:31:06.557Z,20.57
2018-10-11T23:35:10.064Z,19.53
2018-10-11T23:39:12.875Z,25.43
2018-10-11T23:43:15.631Z,24.83
2018-10-11T23:47:18.326Z,25.13
2018-10-11T23:51:21.019Z,23.20
2018-10-11T23:55:23.743Z,22.57
2018-10-11T23:59:26.505Z,24.13
